Time;durP1;ratioP1;P1;durP2;ratioP2;P2;SDS_P1;SDS_P2;PMS_P1;PMS_P2;Temp;Humidity;BMP_temperature;BMP_pressure;BME280_temperature;BME280_humidity;BME280_pressure;Samples;Min_cycle;Max_cycle;Signal;HPM_P1;HPM_P2
2022/01/11 00:00:35;;;;;;;110.47;51.00;;;;;;;;;;2049004;28;20425;-58
2022/01/11 00:01:46;;;;;;;93.30;51.53;;;;;;;;;;2049017;28;20263;-57
2022/01/11 00:02:47;;;;;;;106.70;51.53;;;;;;;;;;2047266;28;20421;-62
2022/01/11 00:03:48;;;;;;;108.37;50.80;;;;;;;;;;2049840;28;20557;-57
2022/01/11 00:04:48;;;;;;;120.83;55.47;;;;;;;;;;2057518;28;20186;-59
2022/01/11 00:05:59;;;;;;;125.00;57.33;;;;;;;;;;2055081;28;20824;-55
2022/01/11 00:07:02;;;;;;;155.63;60.03;;;;;;;;;;2052807;28;20284;-60
2022/01/11 00:08:03;;;;;;;143.23;60.67;;;;;;;;;;2055517;28;20431;-56
2022/01/11 00:09:08;;;;;;;133.03;53.60;;;;;;;;;;2050845;28;20420;-61
2022/01/11 00:10:09;;;;;;;115.33;52.23;;;;;;;;;;2051084;28;20181;-61
2022/01/11 00:11:09;;;;;;;105.70;55.77;;;;;;;;;;2045723;28;20436;-62
2022/01/11 00:12:10;;;;;;;116.63;56.73;;;;;;;;;;2045945;28;20804;-59
2022/01/11 00:13:10;;;;;;;125.50;56.37;;;;;;;;;;2048448;28;20186;-58
2022/01/11 00:14:11;;;;;;;128.43;58.50;;;;;;;;;;2052287;28;20270;-60
2022/01/11 00:15:11;;;;;;;107.20;56.40;;;;;;;;;;2051187;28;20346;-58
2022/01/11 00:16:13;;;;;;;150.60;61.43;;;;;;;;;;2048530;28;20188;-59
2022/01/11 00:17:13;;;;;;;148.03;59.60;;;;;;;;;;2049292;28;20575;-59
2022/01/11 00:18:14;;;;;;;118.87;59.13;;;;;;;;;;2047922;29;20445;-61
2022/01/11 00:19:15;;;;;;;181.57;69.67;;;;;;;;;;2045130;29;20180;-59
2022/01/11 00:20:17;;;;;;;198.60;74.37;;;;;;;;;;2053650;28;20193;-59
2022/01/11 00:21:17;;;;;;;168.30;63.70;;;;;;;;;;2051294;28;20242;-59
2022/01/11 00:22:20;;;;;;;187.30;72.43;;;;;;;;;;2050201;28;20404;-60
2022/01/11 00:24:30;;;;;;;183.43;67.17;;;;;;;;;;2046095;28;20668;-58
2022/01/11 00:25:32;;;;;;;210.33;73.70;;;;;;;;;;2056390;28;20449;-59
2022/01/11 00:26:33;;;;;;;132.33;58.80;;;;;;;;;;2049909;28;20485;-58
2022/01/11 00:27:33;;;;;;;162.83;63.43;;;;;;;;;;2047354;28;20430;-59
2022/01/11 00:28:34;;;;;;;244.20;76.77;;;;;;;;;;2041255;29;20191;-58
2022/01/11 00:29:48;;;;;;;158.60;60.07;;;;;;;;;;2048458;28;20397;-59
2022/01/11 00:30:55;;;;;;;142.40;59.53;;;;;;;;;;2041272;29;20410;-58
2022/01/11 00:31:59;;;;;;;156.93;62.63;;;;;;;;;;2040134;29;20505;-57
2022/01/11 00:33:03;;;;;;;128.33;55.30;;;;;;;;;;2045083;28;20175;-58
2022/01/11 00:34:06;;;;;;;128.67;54.40;;;;;;;;;;2043602;28;20428;-58
2022/01/11 00:35:10;;;;;;;105.40;55.80;;;;;;;;;;2039789;29;20199;-59
2022/01/11 00:36:12;;;;;;;179.43;67.67;;;;;;;;;;2041199;29;20429;-61
2022/01/11 00:37:12;;;;;;;130.87;57.40;;;;;;;;;;2041339;28;20808;-55
2022/01/11 00:38:16;;;;;;;200.40;68.70;;;;;;;;;;2047722;28;20662;-58
2022/01/11 00:39:16;;;;;;;189.77;66.43;;;;;;;;;;2045265;28;20643;-57
2022/01/11 00:40:16;;;;;;;228.90;70.67;;;;;;;;;;2039996;29;20421;-58
2022/01/11 00:41:18;;;;;;;167.37;59.47;;;;;;;;;;2046347;28;20183;-55
2022/01/11 00:42:19;;;;;;;115.80;52.43;;;;;;;;;;2054220;28;20416;-55
2022/01/11 00:43:21;;;;;;;158.93;59.40;;;;;;;;;;2052170;28;20175;-58
2022/01/11 00:44:23;;;;;;;242.67;73.53;;;;;;;;;;2051949;28;20441;-58
2022/01/11 00:45:23;;;;;;;159.87;58.10;;;;;;;;;;2054891;28;20456;-57
2022/01/11 00:46:24;;;;;;;178.73;64.87;;;;;;;;;;2049506;28;20308;-54
2022/01/11 00:47:24;;;;;;;156.20;57.20;;;;;;;;;;2044112;28;20262;-57
2022/01/11 00:48:24;;;;;;;193.63;70.03;;;;;;;;;;2046246;28;20185;-58
2022/01/11 00:49:25;;;;;;;185.13;64.60;;;;;;;;;;2046755;28;20670;-55
2022/01/11 00:50:25;;;;;;;181.63;67.87;;;;;;;;;;2040530;29;20188;-55
2022/01/11 00:51:26;;;;;;;274.00;79.20;;;;;;;;;;2040917;29;20172;-61
2022/01/11 00:52:26;;;;;;;130.00;54.40;;;;;;;;;;2037790;29;20232;-57
2022/01/11 00:53:26;;;;;;;154.73;56.80;;;;;;;;;;2046403;29;20626;-57
2022/01/11 00:54:26;;;;;;;314.77;89.07;;;;;;;;;;2046125;28;20219;-59
2022/01/11 00:55:27;;;;;;;240.83;74.23;;;;;;;;;;2047404;28;20186;-60
2022/01/11 00:56:27;;;;;;;178.80;67.57;;;;;;;;;;2041106;29;20194;-53
2022/01/11 00:57:27;;;;;;;168.67;67.40;;;;;;;;;;2031903;29;20259;-54
2022/01/11 00:58:27;;;;;;;213.87;73.40;;;;;;;;;;2039202;29;20234;-58
2022/01/11 00:59:28;;;;;;;154.70;60.67;;;;;;;;;;2047681;28;20671;-60
2022/01/11 01:00:29;;;;;;;139.83;62.93;;;;;;;;;;2048811;28;20743;-57
2022/01/11 01:01:34;;;;;;;167.57;66.27;;;;;;;;;;2047883;29;20726;-60
2022/01/11 01:02:35;;;;;;;169.90;67.43;;;;;;;;;;2051471;28;20206;-58
2022/01/11 01:03:35;;;;;;;146.47;61.97;;;;;;;;;;2056012;28;20862;-57
2022/01/11 01:04:36;;;;;;;264.03;84.23;;;;;;;;;;2047371;28;20258;-57
2022/01/11 01:05:37;;;;;;;128.83;61.43;;;;;;;;;;2048205;28;20710;-61
2022/01/11 01:06:39;;;;;;;145.97;60.80;;;;;;;;;;2046433;28;20246;-58
2022/01/11 01:07:41;;;;;;;273.37;80.17;;;;;;;;;;2055738;28;20423;-61
2022/01/11 01:08:41;;;;;;;213.90;72.87;;;;;;;;;;2040177;29;20941;-60
2022/01/11 01:09:55;;;;;;;244.83;76.63;;;;;;;;;;2040080;29;20175;-61
2022/01/11 01:10:55;;;;;;;242.70;72.33;;;;;;;;;;2040776;29;20909;-58
2022/01/11 01:11:58;;;;;;;155.70;60.53;;;;;;;;;;2038555;29;20469;-56
2022/01/11 01:12:58;;;;;;;214.23;70.20;;;;;;;;;;2046172;28;20412;-58
2022/01/11 01:14:00;;;;;;;135.33;55.10;;;;;;;;;;2052956;28;20237;-52
2022/01/11 01:15:00;;;;;;;145.23;59.17;;;;;;;;;;2043264;29;21002;-58
2022/01/11 01:16:01;;;;;;;163.33;61.00;;;;;;;;;;2042581;29;20171;-54
2022/01/11 01:17:14;;;;;;;187.83;62.67;;;;;;;;;;2040111;29;20279;-55
2022/01/11 01:18:22;;;;;;;113.87;54.43;;;;;;;;;;2045540;28;20417;-57
2022/01/11 01:19:26;;;;;;;267.17;74.43;;;;;;;;;;2048393;28;20229;-58
2022/01/11 01:20:26;;;;;;;129.80;52.63;;;;;;;;;;2048166;29;20405;-55
2022/01/11 01:21:26;;;;;;;167.97;63.93;;;;;;;;;;2040264;29;20436;-57
2022/01/11 01:22:27;;;;;;;148.00;62.13;;;;;;;;;;2047713;28;20190;-57
2022/01/11 01:23:27;;;;;;;135.73;57.00;;;;;;;;;;2047731;28;20307;-58
2022/01/11 01:24:27;;;;;;;142.60;58.70;;;;;;;;;;2048046;28;20763;-57
2022/01/11 01:25:28;;;;;;;111.20;54.73;;;;;;;;;;2039904;29;20698;-61
2022/01/11 01:26:28;;;;;;;162.60;60.37;;;;;;;;;;2047326;29;20714;-58
2022/01/11 01:27:28;;;;;;;153.57;57.83;;;;;;;;;;2047373;28;20175;-59
2022/01/11 01:28:28;;;;;;;148.27;54.63;;;;;;;;;;2046375;28;20187;-55
2022/01/11 01:29:29;;;;;;;130.53;54.63;;;;;;;;;;2048159;28;20243;-59
2022/01/11 01:30:29;;;;;;;135.80;56.10;;;;;;;;;;2052796;28;20214;-61
2022/01/11 01:31:29;;;;;;;156.83;62.43;;;;;;;;;;2054278;29;20183;-62
2022/01/11 01:32:29;;;;;;;143.00;59.27;;;;;;;;;;2055200;28;20163;-61
2022/01/11 01:33:31;;;;;;;116.17;51.30;;;;;;;;;;2050451;28;20739;-62
2022/01/11 01:34:31;;;;;;;149.13;58.87;;;;;;;;;;2059631;28;20202;-62
2022/01/11 01:35:39;;;;;;;175.13;58.63;;;;;;;;;;2057072;28;20459;-59
2022/01/11 01:36:40;;;;;;;141.73;57.27;;;;;;;;;;2052651;28;20932;-59
2022/01/11 01:37:40;;;;;;;102.40;50.73;;;;;;;;;;2046826;28;20460;-59
2022/01/11 01:38:41;;;;;;;121.87;54.83;;;;;;;;;;2043610;29;20195;-60
2022/01/11 01:39:42;;;;;;;158.30;56.40;;;;;;;;;;2057079;28;20224;-57
2022/01/11 01:40:46;;;;;;;96.63;49.00;;;;;;;;;;2046980;28;20719;-54
2022/01/11 01:41:46;;;;;;;104.97;49.83;;;;;;;;;;2049166;28;20428;-54
2022/01/11 01:42:48;;;;;;;135.37;55.67;;;;;;;;;;2049592;28;20292;-53
2022/01/11 01:43:50;;;;;;;150.30;53.77;;;;;;;;;;2041805;29;20648;-54
2022/01/11 01:44:50;;;;;;;129.20;51.67;;;;;;;;;;2042412;29;21033;-55
2022/01/11 01:45:52;;;;;;;119.90;51.97;;;;;;;;;;2051983;28;20468;-58
2022/01/11 01:46:52;;;;;;;110.07;46.60;;;;;;;;;;2053721;28;20212;-58
2022/01/11 01:47:57;;;;;;;104.53;49.30;;;;;;;;;;2047859;28;21082;-55
2022/01/11 01:48:59;;;;;;;113.17;49.80;;;;;;;;;;2054491;28;20202;-64
2022/01/11 01:50:00;;;;;;;98.33;46.13;;;;;;;;;;2047959;28;20431;-56
2022/01/11 01:51:00;;;;;;;79.13;46.07;;;;;;;;;;2052989;28;20423;-60
2022/01/11 01:52:00;;;;;;;107.97;45.90;;;;;;;;;;2053754;28;20183;-59
2022/01/11 01:53:02;;;;;;;112.03;49.73;;;;;;;;;;2048449;28;20232;-61
2022/01/11 01:54:02;;;;;;;101.20;48.70;;;;;;;;;;2057890;28;20245;-57
2022/01/11 01:55:04;;;;;;;89.40;46.73;;;;;;;;;;2042184;29;20847;-57
2022/01/11 01:56:05;;;;;;;104.20;47.60;;;;;;;;;;2049335;28;20607;-58
2022/01/11 01:57:06;;;;;;;94.63;47.63;;;;;;;;;;2049063;28;20458;-56
2022/01/11 01:58:06;;;;;;;104.70;50.03;;;;;;;;;;2050342;28;20463;-58
2022/01/11 01:59:07;;;;;;;114.63;54.10;;;;;;;;;;2046679;28;20294;-61
2022/01/11 02:00:11;;;;;;;87.07;49.87;;;;;;;;;;2037113;29;20184;-54
2022/01/11 02:01:14;;;;;;;96.33;51.33;;;;;;;;;;2048027;28;20245;-54
2022/01/11 02:02:14;;;;;;;96.70;50.63;;;;;;;;;;2048151;28;20421;-58
2022/01/11 02:03:15;;;;;;;99.70;49.47;;;;;;;;;;2054686;28;20495;-57
2022/01/11 02:04:17;;;;;;;95.13;47.63;;;;;;;;;;2052105;28;20198;-58
2022/01/11 02:05:17;;;;;;;78.53;46.90;;;;;;;;;;2054611;28;20451;-55
2022/01/11 02:06:18;;;;;;;93.30;50.17;;;;;;;;;;2051439;28;20461;-56
2022/01/11 02:07:19;;;;;;;92.17;49.87;;;;;;;;;;2055857;28;20174;-58
2022/01/11 02:08:19;;;;;;;113.80;49.53;;;;;;;;;;2052130;28;20179;-57
2022/01/11 02:09:19;;;;;;;79.40;44.77;;;;;;;;;;2055357;28;20598;-57
2022/01/11 02:10:20;;;;;;;95.73;46.00;;;;;;;;;;2052452;28;20178;-53
2022/01/11 02:11:21;;;;;;;92.10;48.03;;;;;;;;;;2055541;28;20174;-54
2022/01/11 02:12:24;;;;;;;97.87;50.67;;;;;;;;;;2050735;28;20265;-59
2022/01/11 02:13:24;;;;;;;106.30;52.87;;;;;;;;;;2047743;28;20803;-58
2022/01/11 02:14:26;;;;;;;121.77;53.67;;;;;;;;;;2041362;29;20469;-56
2022/01/11 02:15:27;;;;;;;91.57;48.73;;;;;;;;;;2055828;28;20193;-57
2022/01/11 02:16:28;;;;;;;104.63;49.10;;;;;;;;;;2035796;29;20435;-57
2022/01/11 02:17:33;;;;;;;103.73;48.20;;;;;;;;;;2050308;28;20611;-54
2022/01/11 02:18:33;;;;;;;99.53;47.50;;;;;;;;;;2048563;28;20520;-60
2022/01/11 02:19:42;;;;;;;97.50;47.00;;;;;;;;;;2042699;28;20433;-56
2022/01/11 02:20:44;;;;;;;91.40;45.27;;;;;;;;;;2047668;29;20619;-59
2022/01/11 02:21:46;;;;;;;79.07;46.30;;;;;;;;;;2041130;29;20223;-55
2022/01/11 02:22:47;;;;;;;102.67;48.90;;;;;;;;;;2040538;29;20430;-57
2022/01/11 02:23:49;;;;;;;96.27;47.63;;;;;;;;;;2040838;29;20799;-58
2022/01/11 02:24:50;;;;;;;87.43;46.73;;;;;;;;;;2041593;29;20706;-58
2022/01/11 02:25:51;;;;;;;82.30;46.30;;;;;;;;;;2041126;29;20425;-55
2022/01/11 02:26:51;;;;;;;84.17;45.67;;;;;;;;;;2041243;29;20203;-60
2022/01/11 02:27:51;;;;;;;87.50;47.70;;;;;;;;;;2041492;29;20183;-61
2022/01/11 02:28:52;;;;;;;86.00;46.77;;;;;;;;;;2048484;28;20518;-60
2022/01/11 02:29:53;;;;;;;90.87;49.13;;;;;;;;;;2047352;28;20171;-56
2022/01/11 02:30:54;;;;;;;83.57;48.33;;;;;;;;;;2043637;29;20202;-57
2022/01/11 02:31:55;;;;;;;83.50;48.43;;;;;;;;;;2053328;28;20254;-56
2022/01/11 02:32:56;;;;;;;88.20;47.17;;;;;;;;;;2051852;28;21005;-56
2022/01/11 02:33:58;;;;;;;98.20;50.07;;;;;;;;;;2042430;29;20199;-54
2022/01/11 02:35:06;;;;;;;92.00;47.07;;;;;;;;;;2048751;28;20789;-55
2022/01/11 02:36:07;;;;;;;87.30;46.23;;;;;;;;;;2052880;28;20803;-58
2022/01/11 02:37:09;;;;;;;91.90;49.70;;;;;;;;;;2047989;28;20456;-56
2022/01/11 02:38:26;;;;;;;79.60;43.87;;;;;;;;;;2048183;29;20420;-59
2022/01/11 02:39:26;;;;;;;100.73;48.93;;;;;;;;;;2035638;29;20489;-59
2022/01/11 02:40:33;;;;;;;81.57;44.37;;;;;;;;;;2041358;29;20219;-58
2022/01/11 02:41:33;;;;;;;94.00;46.93;;;;;;;;;;2048333;28;20486;-57
2022/01/11 02:42:38;;;;;;;87.90;46.03;;;;;;;;;;2047521;29;20706;-57
2022/01/11 02:43:42;;;;;;;90.87;45.27;;;;;;;;;;2040720;29;20426;-60
2022/01/11 02:44:42;;;;;;;72.60;42.10;;;;;;;;;;2048500;28;20194;-58
2022/01/11 02:45:48;;;;;;;83.67;47.50;;;;;;;;;;2040703;29;20445;-54
2022/01/11 02:46:49;;;;;;;81.27;43.60;;;;;;;;;;2040892;29;20552;-58
2022/01/11 02:47:50;;;;;;;80.70;43.97;;;;;;;;;;2042367;28;20259;-57
2022/01/11 02:48:51;;;;;;;89.50;43.63;;;;;;;;;;2042372;29;20939;-58
2022/01/11 02:49:52;;;;;;;83.20;44.30;;;;;;;;;;2045529;28;20172;-58
2022/01/11 02:51:02;;;;;;;71.33;42.47;;;;;;;;;;2053089;28;20786;-58
2022/01/11 02:52:03;;;;;;;75.40;43.77;;;;;;;;;;2051123;28;20412;-55
2022/01/11 02:53:03;;;;;;;76.30;43.70;;;;;;;;;;2041479;29;20534;-61
2022/01/11 02:54:05;;;;;;;83.40;44.03;;;;;;;;;;2040497;29;20195;-58
2022/01/11 02:55:08;;;;;;;99.27;46.73;;;;;;;;;;2040853;29;20179;-60
2022/01/11 02:56:10;;;;;;;77.37;42.87;;;;;;;;;;2041711;29;20465;-59
2022/01/11 02:57:11;;;;;;;67.73;39.37;;;;;;;;;;2043841;29;20522;-60
2022/01/11 02:58:11;;;;;;;75.67;41.20;;;;;;;;;;2041230;29;20453;-57
2022/01/11 02:59:12;;;;;;;67.33;40.13;;;;;;;;;;2037955;29;20183;-60
2022/01/11 03:00:15;;;;;;;70.13;40.60;;;;;;;;;;2044060;29;20188;-58
2022/01/11 03:01:16;;;;;;;76.37;42.23;;;;;;;;;;2060168;28;20927;-57
2022/01/11 03:02:16;;;;;;;76.80;42.53;;;;;;;;;;2043668;29;20422;-57
2022/01/11 03:03:20;;;;;;;79.70;40.83;;;;;;;;;;2055008;28;20190;-57
2022/01/11 03:04:21;;;;;;;73.80;42.17;;;;;;;;;;2047824;28;20440;-57
2022/01/11 03:05:21;;;;;;;72.17;42.07;;;;;;;;;;2046086;29;20449;-59
2022/01/11 03:06:22;;;;;;;78.83;40.50;;;;;;;;;;2049251;28;20182;-60
2022/01/11 03:07:22;;;;;;;71.90;39.27;;;;;;;;;;2049342;28;20183;-61
2022/01/11 03:08:23;;;;;;;76.80;41.03;;;;;;;;;;2052664;28;20281;-58
2022/01/11 03:09:25;;;;;;;92.90;42.47;;;;;;;;;;2042349;29;20745;-58
2022/01/11 03:10:32;;;;;;;79.47;41.30;;;;;;;;;;2048232;28;20844;-56
2022/01/11 03:11:34;;;;;;;90.50;41.73;;;;;;;;;;2048417;28;20520;-57
2022/01/11 03:12:35;;;;;;;69.63;41.23;;;;;;;;;;2041497;28;20969;-54
2022/01/11 03:13:35;;;;;;;80.03;42.50;;;;;;;;;;2042704;28;20464;-57
2022/01/11 03:14:36;;;;;;;73.70;42.50;;;;;;;;;;2042072;28;20262;-59
2022/01/11 03:15:37;;;;;;;80.10;40.73;;;;;;;;;;2056538;28;20170;-62
2022/01/11 03:16:41;;;;;;;90.03;42.63;;;;;;;;;;2049029;28;20179;-58
2022/01/11 03:17:42;;;;;;;107.10;43.53;;;;;;;;;;2040176;29;20441;-59
2022/01/11 03:18:43;;;;;;;86.03;44.30;;;;;;;;;;2048924;28;20679;-58
2022/01/11 03:19:43;;;;;;;77.50;41.37;;;;;;;;;;2049042;28;20179;-59
2022/01/11 03:20:45;;;;;;;90.90;44.20;;;;;;;;;;2041736;29;20168;-58
2022/01/11 03:21:46;;;;;;;73.80;40.17;;;;;;;;;;2045772;28;20206;-59
2022/01/11 03:22:48;;;;;;;79.27;42.90;;;;;;;;;;2050234;28;20425;-61
2022/01/11 03:23:50;;;;;;;77.53;42.23;;;;;;;;;;2047154;29;20968;-57
2022/01/11 03:24:50;;;;;;;85.97;43.43;;;;;;;;;;2048793;29;20432;-59
2022/01/11 03:25:52;;;;;;;81.27;43.63;;;;;;;;;;2048648;28;20186;-58
2022/01/11 03:26:52;;;;;;;104.20;42.73;;;;;;;;;;2049793;28;20210;-57
2022/01/11 03:27:53;;;;;;;82.83;41.77;;;;;;;;;;2048225;29;20447;-60
2022/01/11 03:28:55;;;;;;;77.30;42.43;;;;;;;;;;2052585;29;20175;-61
2022/01/11 03:29:55;;;;;;;64.77;40.57;;;;;;;;;;2044078;29;20406;-59
2022/01/11 03:30:56;;;;;;;68.90;40.03;;;;;;;;;;2051403;29;20194;-61
2022/01/11 03:31:56;;;;;;;82.07;43.00;;;;;;;;;;2048301;28;20185;-60
2022/01/11 03:32:56;;;;;;;73.07;41.07;;;;;;;;;;2044564;28;20627;-54
2022/01/11 03:34:01;;;;;;;72.50;38.97;;;;;;;;;;2048396;28;20183;-55
2022/01/11 03:35:02;;;;;;;68.10;40.07;;;;;;;;;;2048676;29;20439;-54
2022/01/11 03:36:03;;;;;;;70.50;40.73;;;;;;;;;;2054721;28;20321;-56
2022/01/11 03:37:03;;;;;;;78.67;41.83;;;;;;;;;;2044395;29;20492;-59
2022/01/11 03:38:06;;;;;;;77.50;40.17;;;;;;;;;;2052316;28;20842;-60
2022/01/11 03:39:07;;;;;;;71.47;38.50;;;;;;;;;;2052657;28;20459;-56
2022/01/11 03:40:10;;;;;;;84.73;40.67;;;;;;;;;;2048401;28;20485;-57
2022/01/11 03:41:11;;;;;;;93.23;40.53;;;;;;;;;;2053424;28;20229;-60
2022/01/11 03:42:12;;;;;;;77.87;38.00;;;;;;;;;;2043012;29;20414;-59
2022/01/11 03:43:12;;;;;;;82.50;38.33;;;;;;;;;;2053627;28;20408;-58
2022/01/11 03:44:12;;;;;;;77.93;40.17;;;;;;;;;;2051373;28;20203;-58
2022/01/11 03:45:13;;;;;;;69.23;41.13;;;;;;;;;;2053235;28;20178;-58
2022/01/11 03:46:13;;;;;;;66.93;39.27;;;;;;;;;;2056100;28;20333;-57
2022/01/11 03:47:14;;;;;;;104.10;42.43;;;;;;;;;;2043908;29;20429;-58
2022/01/11 03:48:15;;;;;;;65.17;39.80;;;;;;;;;;2044796;28;20726;-58
2022/01/11 03:49:15;;;;;;;82.03;40.03;;;;;;;;;;2040761;29;20236;-55
2022/01/11 03:50:16;;;;;;;72.50;40.43;;;;;;;;;;2040397;29;20414;-57
2022/01/11 03:51:17;;;;;;;86.00;39.77;;;;;;;;;;2048644;28;20179;-59
2022/01/11 03:52:23;;;;;;;96.20;40.03;;;;;;;;;;2041094;29;20175;-57
2022/01/11 03:53:31;;;;;;;74.70;39.47;;;;;;;;;;2048132;29;20533;-61
2022/01/11 03:54:44;;;;;;;85.87;39.00;;;;;;;;;;2051252;28;20666;-58
2022/01/11 03:56:57;;;;;;;82.00;37.63;;;;;;;;;;2035647;29;20513;-60
2022/01/11 03:58:01;;;;;;;84.67;37.27;;;;;;;;;;2048571;28;20415;-55
2022/01/11 03:59:06;;;;;;;74.60;37.23;;;;;;;;;;2044338;29;20453;-58
2022/01/11 04:00:12;;;;;;;92.20;42.40;;;;;;;;;;2052569;28;20290;-56
2022/01/11 04:01:14;;;;;;;81.50;37.17;;;;;;;;;;2054290;28;20997;-58
2022/01/11 04:02:14;;;;;;;70.87;37.30;;;;;;;;;;2046991;28;20454;-56
2022/01/11 04:03:14;;;;;;;92.23;42.20;;;;;;;;;;2047813;28;20269;-55
2022/01/11 04:04:18;;;;;;;71.03;38.07;;;;;;;;;;2048821;28;20242;-58
2022/01/11 04:05:18;;;;;;;79.33;39.53;;;;;;;;;;2040888;29;20513;-58
2022/01/11 04:06:18;;;;;;;70.10;39.77;;;;;;;;;;2037980;29;20422;-56
2022/01/11 04:07:26;;;;;;;76.60;38.47;;;;;;;;;;2040418;29;20179;-57
2022/01/11 04:08:26;;;;;;;64.70;37.67;;;;;;;;;;2050801;28;20183;-58
2022/01/11 04:09:27;;;;;;;81.07;43.73;;;;;;;;;;2048684;28;20425;-57
2022/01/11 04:10:27;;;;;;;71.87;36.80;;;;;;;;;;2056333;28;20815;-57
2022/01/11 04:11:27;;;;;;;63.50;37.27;;;;;;;;;;2047872;28;20203;-56
2022/01/11 04:12:28;;;;;;;70.20;38.03;;;;;;;;;;2044510;28;20266;-56
2022/01/11 04:13:29;;;;;;;99.10;39.13;;;;;;;;;;2040358;29;20481;-56
2022/01/11 04:14:29;;;;;;;83.27;39.03;;;;;;;;;;2047604;28;20281;-56
2022/01/11 04:15:29;;;;;;;67.10;37.77;;;;;;;;;;2047557;28;20187;-55
2022/01/11 04:16:30;;;;;;;64.23;35.47;;;;;;;;;;2046307;29;20178;-53
2022/01/11 04:17:33;;;;;;;63.70;37.10;;;;;;;;;;2040001;28;20179;-55
2022/01/11 04:18:33;;;;;;;89.17;38.00;;;;;;;;;;2048225;28;20415;-58
2022/01/11 04:19:33;;;;;;;69.13;35.00;;;;;;;;;;2049002;28;20194;-57
2022/01/11 04:20:34;;;;;;;65.37;35.37;;;;;;;;;;2054599;28;20194;-58
2022/01/11 04:21:34;;;;;;;96.03;39.13;;;;;;;;;;2057269;28;20213;-57
2022/01/11 04:22:35;;;;;;;58.50;33.83;;;;;;;;;;2040483;29;20225;-60
2022/01/11 04:23:35;;;;;;;62.10;35.63;;;;;;;;;;2048054;29;20198;-55
2022/01/11 04:24:36;;;;;;;65.93;34.50;;;;;;;;;;2039891;28;20191;-55
2022/01/11 04:25:36;;;;;;;57.00;34.80;;;;;;;;;;2046625;28;20266;-58
2022/01/11 04:26:36;;;;;;;56.93;34.50;;;;;;;;;;2049917;28;20302;-56
2022/01/11 04:27:39;;;;;;;49.47;34.17;;;;;;;;;;2046545;28;20267;-57
2022/01/11 04:28:40;;;;;;;77.60;37.03;;;;;;;;;;2041814;29;20452;-56
2022/01/11 04:29:41;;;;;;;64.83;33.53;;;;;;;;;;2054885;28;20178;-59
2022/01/11 04:30:42;;;;;;;55.23;33.70;;;;;;;;;;2038935;29;20422;-56
2022/01/11 04:31:44;;;;;;;74.87;36.77;;;;;;;;;;2046896;28;20270;-57
2022/01/11 04:32:50;;;;;;;72.90;36.03;;;;;;;;;;2041773;28;20457;-57
2022/01/11 04:33:52;;;;;;;66.77;34.77;;;;;;;;;;2053502;28;20596;-56
2022/01/11 04:34:53;;;;;;;64.70;34.03;;;;;;;;;;2048769;28;20480;-55
2022/01/11 04:35:54;;;;;;;54.13;33.50;;;;;;;;;;2040728;29;20191;-57
2022/01/11 04:36:56;;;;;;;54.97;35.93;;;;;;;;;;2040723;29;20500;-57
2022/01/11 04:37:58;;;;;;;52.73;32.80;;;;;;;;;;2043717;28;21383;-54
2022/01/11 04:38:59;;;;;;;48.67;33.90;;;;;;;;;;2041627;29;20425;-54
2022/01/11 04:40:00;;;;;;;45.10;32.57;;;;;;;;;;2041048;29;20199;-60
2022/01/11 04:41:03;;;;;;;49.63;33.10;;;;;;;;;;2045112;28;20719;-56
2022/01/11 04:42:08;;;;;;;45.03;30.53;;;;;;;;;;2037443;29;20448;-58
2022/01/11 04:43:08;;;;;;;94.07;34.77;;;;;;;;;;2036879;29;20461;-57
2022/01/11 04:44:09;;;;;;;45.50;32.70;;;;;;;;;;2047276;28;20199;-59
2022/01/11 04:45:11;;;;;;;47.63;31.87;;;;;;;;;;2052084;28;20182;-57
2022/01/11 04:46:11;;;;;;;45.53;32.60;;;;;;;;;;2042534;29;20176;-58
2022/01/11 04:47:13;;;;;;;50.30;33.00;;;;;;;;;;2040072;29;20461;-58
2022/01/11 04:48:14;;;;;;;54.53;30.70;;;;;;;;;;2041475;29;20452;-58
2022/01/11 04:49:14;;;;;;;53.00;34.17;;;;;;;;;;2037658;29;20202;-60
2022/01/11 04:50:15;;;;;;;44.67;30.90;;;;;;;;;;2040121;29;20802;-58
2022/01/11 04:51:16;;;;;;;47.63;32.87;;;;;;;;;;2046398;29;20563;-58
2022/01/11 04:52:16;;;;;;;48.43;31.23;;;;;;;;;;2041826;29;20747;-58
2022/01/11 04:53:17;;;;;;;59.63;32.37;;;;;;;;;;2053622;28;20233;-59
2022/01/11 04:54:17;;;;;;;47.03;31.00;;;;;;;;;;2047078;28;20224;-60
2022/01/11 04:55:18;;;;;;;57.90;32.10;;;;;;;;;;2041087;29;20603;-57
2022/01/11 04:56:22;;;;;;;46.23;31.73;;;;;;;;;;2041467;29;20179;-59
2022/01/11 04:57:22;;;;;;;49.53;30.90;;;;;;;;;;2036639;29;20406;-56
2022/01/11 04:58:22;;;;;;;46.43;31.97;;;;;;;;;;2039257;29;20652;-56
2022/01/11 04:59:24;;;;;;;42.80;29.97;;;;;;;;;;2047630;28;20190;-57
2022/01/11 05:00:25;;;;;;;45.53;30.57;;;;;;;;;;2054632;28;20201;-51
2022/01/11 05:01:25;;;;;;;44.60;32.07;;;;;;;;;;2041425;29;20525;-57
2022/01/11 05:02:26;;;;;;;47.93;31.10;;;;;;;;;;2039633;29;20168;-57
2022/01/11 05:03:26;;;;;;;42.97;30.47;;;;;;;;;;2051976;28;20693;-52
2022/01/11 05:04:33;;;;;;;47.00;28.70;;;;;;;;;;2050342;28;20427;-59
2022/01/11 05:05:33;;;;;;;46.27;28.83;;;;;;;;;;2047256;28;20776;-59
2022/01/11 05:06:34;;;;;;;46.60;30.43;;;;;;;;;;2055746;28;20385;-59
2022/01/11 05:07:34;;;;;;;42.27;28.87;;;;;;;;;;2045215;28;20179;-56
2022/01/11 05:08:35;;;;;;;40.87;29.80;;;;;;;;;;2047225;28;20179;-56
2022/01/11 05:09:37;;;;;;;45.20;30.33;;;;;;;;;;2040416;28;20179;-59
2022/01/11 05:10:42;;;;;;;43.33;31.20;;;;;;;;;;2043228;28;20497;-58
2022/01/11 05:11:42;;;;;;;47.47;30.53;;;;;;;;;;2041298;29;20960;-56
2022/01/11 05:12:44;;;;;;;46.73;31.00;;;;;;;;;;2040214;29;20823;-58
2022/01/11 05:13:47;;;;;;;44.07;31.70;;;;;;;;;;2039904;29;20432;-55
2022/01/11 05:15:10;;;;;;;42.87;27.87;;;;;;;;;;2078877;23;20649;-54
2022/01/11 05:16:11;;;;;;;45.57;30.27;;;;;;;;;;2064295;28;20435;-56
2022/01/11 05:17:12;;;;;;;40.80;29.40;;;;;;;;;;2063662;28;20411;-56
2022/01/11 05:18:12;;;;;;;44.87;30.80;;;;;;;;;;2071064;28;20376;-57
2022/01/11 05:19:13;;;;;;;45.10;28.17;;;;;;;;;;2056359;28;20218;-57
2022/01/11 05:20:15;;;;;;;44.17;30.40;;;;;;;;;;2058187;28;20185;-58
2022/01/11 05:21:15;;;;;;;49.00;30.37;;;;;;;;;;2074510;28;20403;-56
2022/01/11 05:22:16;;;;;;;44.80;30.00;;;;;;;;;;2069953;28;20192;-56
2022/01/11 05:23:16;;;;;;;44.73;29.00;;;;;;;;;;2071843;28;20176;-58
2022/01/11 05:24:17;;;;;;;44.97;28.47;;;;;;;;;;2069794;28;20264;-52
2022/01/11 05:25:21;;;;;;;39.23;28.03;;;;;;;;;;2063855;28;20439;-58
2022/01/11 05:26:21;;;;;;;44.17;30.20;;;;;;;;;;2057529;28;20416;-53
2022/01/11 05:27:22;;;;;;;56.07;33.20;;;;;;;;;;2066186;28;20256;-56
2022/01/11 05:28:23;;;;;;;41.50;29.10;;;;;;;;;;2067258;28;20633;-55
2022/01/11 05:29:23;;;;;;;43.50;28.47;;;;;;;;;;2055347;28;20610;-55
2022/01/11 05:30:23;;;;;;;46.43;30.23;;;;;;;;;;2073823;28;20653;-57
2022/01/11 05:31:24;;;;;;;42.50;28.90;;;;;;;;;;2082946;28;20208;-57
2022/01/11 05:32:24;;;;;;;46.30;29.70;;;;;;;;;;2070387;28;20685;-52
2022/01/11 05:33:24;;;;;;;44.73;29.17;;;;;;;;;;2065096;28;20208;-58
2022/01/11 05:34:25;;;;;;;47.63;29.73;;;;;;;;;;2072985;28;20716;-53
2022/01/11 05:35:26;;;;;;;51.00;29.87;;;;;;;;;;2081338;28;20199;-55
2022/01/11 05:36:27;;;;;;;44.60;30.17;;;;;;;;;;2073102;28;20905;-55
2022/01/11 05:37:27;;;;;;;47.07;30.23;;;;;;;;;;2064963;28;20181;-57
2022/01/11 05:38:27;;;;;;;41.87;28.90;;;;;;;;;;2065006;28;20173;-56
2022/01/11 05:39:28;;;;;;;41.83;29.43;;;;;;;;;;2065797;28;20279;-54
2022/01/11 05:40:29;;;;;;;45.80;29.80;;;;;;;;;;2060299;28;20166;-56
2022/01/11 05:41:37;;;;;;;38.33;27.50;;;;;;;;;;2075068;28;20165;-57
2022/01/11 05:42:38;;;;;;;42.20;28.73;;;;;;;;;;2066669;28;20515;-55
2022/01/11 05:43:38;;;;;;;40.93;28.13;;;;;;;;;;2069175;28;20174;-56
2022/01/11 05:44:39;;;;;;;37.83;27.50;;;;;;;;;;2077096;28;20212;-55
2022/01/11 05:45:41;;;;;;;38.87;27.83;;;;;;;;;;2076347;28;20183;-55
2022/01/11 05:46:41;;;;;;;40.13;27.80;;;;;;;;;;2075146;28;20453;-55
2022/01/11 05:47:41;;;;;;;38.43;27.83;;;;;;;;;;2077062;28;20767;-54
2022/01/11 05:48:45;;;;;;;39.57;26.93;;;;;;;;;;2076161;28;20166;-55
2022/01/11 05:49:46;;;;;;;38.97;28.07;;;;;;;;;;2069728;28;20839;-55
2022/01/11 05:50:47;;;;;;;35.77;27.47;;;;;;;;;;2067663;28;20447;-56
2022/01/11 05:51:48;;;;;;;38.53;27.17;;;;;;;;;;2065596;28;20170;-56
2022/01/11 05:52:51;;;;;;;39.20;27.10;;;;;;;;;;2061221;28;20491;-55
2022/01/11 05:53:52;;;;;;;37.70;27.10;;;;;;;;;;2073460;28;20177;-55
2022/01/11 05:54:53;;;;;;;38.23;26.53;;;;;;;;;;2072531;28;20434;-57
2022/01/11 05:55:53;;;;;;;38.17;27.70;;;;;;;;;;2064176;28;20609;-53
2022/01/11 05:56:53;;;;;;;35.47;26.70;;;;;;;;;;2056519;28;20178;-59
2022/01/11 05:57:54;;;;;;;38.27;26.60;;;;;;;;;;2066286;28;20169;-57
2022/01/11 05:58:54;;;;;;;40.07;26.27;;;;;;;;;;2066275;28;20648;-56
2022/01/11 05:59:54;;;;;;;37.17;26.07;;;;;;;;;;2073289;28;20173;-54